Time;durP1;ratioP1;P1;durP2;ratioP2;P2;SDS_P1;SDS_P2;PMS_P1;PMS_P2;Temp;Humidity;BMP_temperature;BMP_pressure;BME280_temperature;BME280_humidity;BME280_pressure;Samples;Min_cycle;Max_cycle;Signal;HPM_P1;HPM_P2
2023/03/11 00:00:01;;;;;;;0.60;0.60;;;;;;;1.90;64.06;95753.16;29373;221;63008;-67
2023/03/11 00:00:35;;;;;;;0.60;0.60;;;;;;;1.84;64.51;95759.56;29373;298;63005;-61
2023/03/11 00:01:08;;;;;;;0.60;0.60;;;;;;;1.81;64.22;95760.91;29371;240;64014;-63
2023/03/11 00:01:40;;;;;;;0.60;0.60;;;;;;;1.86;63.60;95752.09;29373;227;63005;-60
2023/03/11 00:02:12;;;;;;;0.60;0.60;;;;;;;1.93;62.70;95748.09;29372;207;64013;-67
2023/03/11 00:02:48;;;;;;;0.60;0.60;;;;;;;2.03;62.61;95746.50;29373;296;63005;-64
2023/03/11 00:03:23;;;;;;;0.60;0.60;;;;;;;2.10;61.94;95747.03;29373;239;63009;-61
2023/03/11 00:03:55;;;;;;;0.60;0.60;;;;;;;2.10;62.29;95747.03;29373;290;63005;-62
2023/03/11 00:04:29;;;;;;;0.70;0.70;;;;;;;2.17;61.25;95747.56;29373;244;63009;-59
2023/03/11 00:05:01;;;;;;;0.60;0.60;;;;;;;2.20;61.22;95744.34;29373;233;63004;-54
2023/03/11 00:05:35;;;;;;;0.70;0.70;;;;;;;2.18;60.97;95735.78;29373;213;63009;-56
2023/03/11 00:06:07;;;;;;;0.70;0.70;;;;;;;2.13;61.30;95746.50;29373;205;63004;-60
2023/03/11 00:06:38;;;;;;;0.60;0.60;;;;;;;2.11;61.33;95737.91;29373;225;63009;-64
2023/03/11 00:07:10;;;;;;;0.60;0.60;;;;;;;2.00;61.83;95732.59;29373;199;63004;-63
2023/03/11 00:07:42;;;;;;;0.60;0.60;;;;;;;1.96;62.45;95750.25;29371;254;64013;-57
2023/03/11 00:08:19;;;;;;;0.60;0.60;;;;;;;1.92;62.69;95741.13;29373;220;63005;-57
2023/03/11 00:08:51;;;;;;;0.60;0.60;;;;;;;1.90;62.53;95743.28;29373;223;63009;-63
2023/03/11 00:09:23;;;;;;;0.60;0.60;;;;;;;1.93;62.43;95742.75;29373;224;63005;-59
2023/03/11 00:09:54;;;;;;;0.60;0.60;;;;;;;1.90;62.23;95747.81;29373;216;63009;-60
2023/03/11 00:10:29;;;;;;;0.60;0.60;;;;;;;1.87;62.41;95740.31;29373;223;63005;-66
2023/03/11 00:11:01;;;;;;;0.60;0.60;;;;;;;1.78;63.12;95750.72;29373;212;63025;-65
2023/03/11 00:11:32;;;;;;;0.60;0.60;;;;;;;1.70;64.09;95759.31;29373;210;63005;-61
2023/03/11 00:12:06;;;;;;;0.60;0.60;;;;;;;1.71;63.58;95763.59;29373;266;63009;-61
2023/03/11 00:12:41;;;;;;;0.60;0.60;;;;;;;1.70;63.93;95764.66;29373;239;63004;-70
2023/03/11 00:13:14;;;;;;;0.60;0.60;;;;;;;1.63;64.01;95764.88;29371;220;64013;-62
2023/03/11 00:13:45;;;;;;;0.70;0.70;;;;;;;1.63;63.89;95764.09;29371;215;64009;-67
2023/03/11 00:14:17;;;;;;;0.70;0.70;;;;;;;1.65;63.94;95772.66;29373;202;63009;-58
2023/03/11 00:14:48;;;;;;;0.60;0.60;;;;;;;1.76;63.62;95771.59;29373;221;63004;-58
2023/03/11 00:15:23;;;;;;;0.60;0.60;;;;;;;1.76;63.39;95766.25;29373;220;63008;-61
2023/03/11 00:15:56;;;;;;;0.60;0.60;;;;;;;1.71;63.64;95762.78;29372;222;64009;-61
2023/03/11 00:16:27;;;;;;;0.60;0.60;;;;;;;1.72;63.59;95767.88;29373;222;63009;-60
2023/03/11 00:16:58;;;;;;;0.60;0.60;;;;;;;1.73;63.25;95769.47;29371;204;64009;-68
2023/03/11 00:17:30;;;;;;;0.60;0.60;;;;;;;1.76;63.53;95768.91;29373;245;63009;-63
2023/03/11 00:18:03;;;;;;;0.60;0.60;;;;;;;1.73;63.56;95766.78;29373;220;63005;-66
2023/03/11 00:18:34;;;;;;;0.60;0.60;;;;;;;1.65;63.56;95773.44;29373;197;63009;-61
2023/03/11 00:19:06;;;;;;;0.60;0.60;;;;;;;1.62;65.25;95778.53;29373;211;63009;-70
2023/03/11 00:19:37;;;;;;;0.60;0.60;;;;;;;1.62;65.06;95783.88;29373;255;63009;-60
2023/03/11 00:20:16;;;;;;;0.60;0.60;;;;;;;1.60;64.44;95775.31;29373;263;63004;-62
2023/03/11 00:20:51;;;;;;;0.60;0.60;;;;;;;1.60;64.63;95775.31;29372;310;63009;-63
2023/03/11 00:21:23;;;;;;;0.60;0.60;;;;;;;1.58;64.53;95777.44;29371;212;64009;-65
2023/03/11 00:21:55;;;;;;;0.60;0.60;;;;;;;1.51;64.86;95774.19;29373;245;63009;-67
2023/03/11 00:22:26;;;;;;;0.70;0.70;;;;;;;1.58;64.72;95774.75;29373;221;63004;-66
2023/03/11 00:23:02;;;;;;;0.60;0.60;;;;;;;1.58;64.88;95782.78;29372;210;63008;-61
2023/03/11 00:23:34;;;;;;;0.60;0.60;;;;;;;1.56;65.34;95777.69;29373;244;63010;-66
2023/03/11 00:24:06;;;;;;;0.70;0.70;;;;;;;1.55;65.66;95788.66;29373;276;63026;-66
2023/03/11 00:24:37;;;;;;;0.60;0.60;;;;;;;1.62;64.60;95783.88;29373;210;63005;-65
2023/03/11 00:25:11;;;;;;;0.60;0.60;;;;;;;1.66;64.00;95790.31;29373;209;63009;-70
2023/03/11 00:25:44;;;;;;;0.60;0.60;;;;;;;1.74;64.26;95791.63;29373;202;63005;-64
2023/03/11 00:26:15;;;;;;;0.62;0.62;;;;;;;1.85;63.75;95783.38;29371;326;64013;-68
2023/03/11 00:26:46;;;;;;;0.60;0.60;;;;;;;1.74;63.97;95779.06;29373;225;63005;-64
2023/03/11 00:27:18;;;;;;;0.68;0.68;;;;;;;1.71;64.54;95793.00;29373;242;63009;-65
2023/03/11 00:27:52;;;;;;;0.60;0.60;;;;;;;1.67;65.37;95789.25;29373;234;63004;-64
2023/03/11 00:28:25;;;;;;;0.60;0.60;;;;;;;1.70;64.30;95791.38;29373;302;63009;-70
2023/03/11 00:28:57;;;;;;;0.60;0.60;;;;;;;1.76;64.37;95786.84;29373;308;63004;-59
2023/03/11 00:29:29;;;;;;;0.60;0.60;;;;;;;1.82;64.31;95788.44;29371;281;64013;-59
2023/03/11 00:30:00;;;;;;;0.60;0.60;;;;;;;1.80;64.20;95782.56;29373;211;63004;-64
2023/03/11 00:30:32;;;;;;;0.60;0.60;;;;;;;1.77;64.27;95785.75;29373;212;63008;-60
2023/03/11 00:31:04;;;;;;;0.60;0.60;;;;;;;1.83;63.91;95785.50;29373;253;63005;-60
2023/03/11 00:31:36;;;;;;;0.60;0.60;;;;;;;1.78;63.87;95798.88;29373;224;63009;-65
2023/03/11 00:32:08;;;;;;;0.60;0.60;;;;;;;1.86;63.60;95784.19;29373;209;63005;-65
2023/03/11 00:32:40;;;;;;;0.60;0.60;;;;;;;1.92;63.31;95789.28;29373;213;63019;-58
2023/03/11 00:33:14;;;;;;;0.60;0.60;;;;;;;1.97;63.54;95797.31;29373;288;63005;-59
2023/03/11 00:33:45;;;;;;;0.60;0.60;;;;;;;1.87;63.67;95789.28;29371;231;64013;-63
2023/03/11 00:34:16;;;;;;;0.60;0.60;;;;;;;1.88;63.73;95788.22;29373;216;63004;-63
2023/03/11 00:34:54;;;;;;;0.70;0.70;;;;;;;1.75;65.56;95802.06;29373;209;63009;-63
2023/03/11 00:35:30;;;;;;;0.60;0.60;;;;;;;1.72;64.98;95780.44;29373;245;63004;-60
2023/03/11 00:36:01;;;;;;;0.60;0.60;;;;;;;1.80;64.57;95783.38;29373;207;63015;-59
2023/03/11 00:36:33;;;;;;;0.62;0.62;;;;;;;1.90;64.01;95783.41;29371;202;64008;-59
2023/03/11 00:37:05;;;;;;;0.60;0.60;;;;;;;1.95;63.66;95778.06;29373;202;63008;-60
2023/03/11 00:37:36;;;;;;;0.60;0.60;;;;;;;1.94;63.86;95787.16;29373;209;63000;-66
2023/03/11 00:38:12;;;;;;;0.60;0.60;;;;;;;1.85;63.92;95790.59;29373;238;63008;-66
2023/03/11 00:38:50;;;;;;;0.60;0.60;;;;;;;1.74;64.80;95792.44;29393;210;64009;-62
2023/03/11 00:39:22;;;;;;;0.60;0.60;;;;;;;1.69;64.61;95789.78;29395;228;63009;-68
2023/03/11 00:39:54;;;;;;;0.60;0.60;;;;;;;1.72;65.01;95799.94;29373;219;63005;-59
2023/03/11 00:40:28;;;;;;;0.60;0.60;;;;;;;1.72;64.73;95778.56;29373;206;63009;-62
2023/03/11 00:41:00;;;;;;;0.60;0.60;;;;;;;1.70;64.94;95782.56;29373;207;63005;-61
2023/03/11 00:41:33;;;;;;;0.60;0.60;;;;;;;1.63;65.22;95790.81;29373;241;63009;-61
2023/03/11 00:42:08;;;;;;;0.60;0.60;;;;;;;1.62;65.87;95802.59;29373;317;63004;-62
2023/03/11 00:42:39;;;;;;;0.60;0.60;;;;;;;1.63;65.74;95812.22;29373;246;63009;-63
2023/03/11 00:43:11;;;;;;;0.60;0.60;;;;;;;1.66;65.64;95801.00;29373;324;63004;-63
2023/03/11 00:43:43;;;;;;;0.60;0.60;;;;;;;1.62;65.78;95806.06;29373;197;63009;-61
2023/03/11 00:44:14;;;;;;;0.60;0.60;;;;;;;1.66;65.64;95799.13;29371;197;64008;-60
2023/03/11 00:44:45;;;;;;;0.60;0.60;;;;;;;1.76;65.22;95800.19;29371;251;64013;-63
2023/03/11 00:45:17;;;;;;;1.73;1.65;;;;;;;1.88;64.60;95806.94;29373;290;63005;-56
2023/03/11 00:45:49;;;;;;;0.60;0.60;;;;;;;1.96;63.80;95792.25;29373;259;63018;-62
2023/03/11 00:46:20;;;;;;;0.60;0.60;;;;;;;1.95;64.05;95793.31;29373;207;63005;-65
2023/03/11 00:46:51;;;;;;;0.60;0.60;;;;;;;1.91;64.61;95809.09;29373;219;63009;-62
2023/03/11 00:47:22;;;;;;;0.70;0.70;;;;;;;1.90;64.63;95802.13;29373;299;63005;-61
2023/03/11 00:47:54;;;;;;;0.60;0.60;;;;;;;1.90;64.78;95801.31;29371;297;64013;-61
2023/03/11 00:48:26;;;;;;;0.68;0.68;;;;;;;1.86;64.80;95800.25;29373;276;63005;-59
2023/03/11 00:48:57;;;;;;;0.70;0.70;;;;;;;1.90;64.28;95798.66;29373;211;63009;-60
2023/03/11 00:49:30;;;;;;;0.62;0.62;;;;;;;1.89;64.97;95800.50;29373;295;63004;-65
2023/03/11 00:50:01;;;;;;;0.60;0.60;;;;;;;1.85;64.61;95804.78;29371;232;64005;-65
2023/03/11 00:50:46;;;;;;;0.60;0.60;;;;;;;1.77;65.18;95807.97;29373;266;63010;-62
2023/03/11 00:51:18;;;;;;;0.70;0.70;;;;;;;1.86;64.64;95816.28;29371;230;64013;-63
2023/03/11 00:51:49;;;;;;;0.60;0.60;;;;;;;1.92;64.53;95799.19;29373;206;63004;-60
2023/03/11 00:52:20;;;;;;;0.60;0.60;;;;;;;1.95;64.53;95794.13;29373;219;63008;-63
2023/03/11 00:52:52;;;;;;;0.60;0.60;;;;;;;1.85;64.54;95798.63;29373;199;63005;-63
2023/03/11 00:53:24;;;;;;;0.60;0.60;;;;;;;1.83;65.42;95803.44;29373;229;63009;-63
2023/03/11 00:53:55;;;;;;;0.80;0.80;;;;;;;1.80;65.40;95807.44;29373;284;63009;-63
2023/03/11 00:54:28;;;;;;;0.60;0.60;;;;;;;1.75;65.40;95804.75;29371;256;64013;-62
2023/03/11 00:55:00;;;;;;;0.60;0.60;;;;;;;1.73;65.96;95817.59;29373;198;63005;-61
2023/03/11 00:55:33;;;;;;;0.60;0.60;;;;;;;1.77;65.80;95817.84;29373;291;63009;-64
2023/03/11 00:56:07;;;;;;;0.60;0.60;;;;;;;1.77;65.89;95817.84;29373;198;63005;-67
2023/03/11 00:56:40;;;;;;;0.60;0.60;;;;;;;1.73;65.60;95822.97;29373;261;63009;-59
2023/03/11 00:57:11;;;;;;;0.70;0.70;;;;;;;1.80;65.93;95818.13;29373;239;63015;-58
2023/03/11 00:57:43;;;;;;;0.68;0.68;;;;;;;1.83;65.25;95817.63;29373;202;63009;-65
2023/03/11 00:58:18;;;;;;;0.60;0.60;;;;;;;1.82;65.07;95805.31;29371;208;64009;-60
2023/03/11 00:58:49;;;;;;;0.60;0.60;;;;;;;1.85;64.99;95799.44;29373;316;63009;-62
2023/03/11 00:59:21;;;;;;;0.60;0.60;;;;;;;1.82;65.41;95809.84;29373;246;63004;-65
2023/03/11 00:59:53;;;;;;;0.60;0.60;;;;;;;1.75;65.22;95820.00;29373;202;63008;-62
2023/03/11 01:00:27;;;;;;;0.70;0.70;;;;;;;1.82;65.35;95821.34;29373;350;63005;-60
2023/03/11 01:00:58;;;;;;;0.60;0.60;;;;;;;1.88;65.41;95814.97;29373;354;63009;-65
2023/03/11 01:01:35;;;;;;;0.60;0.60;;;;;;;1.91;65.47;95813.62;29373;247;63005;-62
2023/03/11 01:02:06;;;;;;;0.77;0.77;;;;;;;1.89;65.43;95811.22;29373;199;63009;-64
2023/03/11 01:02:41;;;;;;;0.60;0.60;;;;;;;1.87;65.33;95813.34;29371;259;64009;-60
2023/03/11 01:03:13;;;;;;;0.60;0.60;;;;;;;1.87;65.58;95829.41;29371;278;64013;-60
2023/03/11 01:03:45;;;;;;;0.60;0.60;;;;;;;1.86;65.46;95827.78;29373;272;63005;-65
2023/03/11 01:04:16;;;;;;;0.60;0.60;;;;;;;1.80;65.32;95838.72;29373;233;63009;-59
2023/03/11 01:04:53;;;;;;;0.70;0.70;;;;;;;1.87;65.09;95824.03;29373;363;63004;-57
2023/03/11 01:05:28;;;;;;;0.65;0.65;;;;;;;1.91;64.93;95813.62;29373;214;63012;-60
2023/03/11 01:06:00;;;;;;;0.60;0.60;;;;;;;1.94;64.84;95803.19;29373;203;63004;-68
2023/03/11 01:06:31;;;;;;;0.60;0.60;;;;;;;1.86;65.34;95817.09;29373;269;63009;-61
2023/03/11 01:07:03;;;;;;;0.60;0.60;;;;;;;1.84;65.16;95818.41;29371;255;64008;-62
2023/03/11 01:07:37;;;;;;;0.70;0.70;;;;;;;1.88;65.05;95814.97;29372;358;64009;-59
2023/03/11 01:08:11;;;;;;;0.60;0.60;;;;;;;1.90;65.36;95812.00;29373;215;63005;-64
2023/03/11 01:08:43;;;;;;;0.60;0.60;;;;;;;1.86;65.06;95822.44;29373;321;63018;-59
2023/03/11 01:09:17;;;;;;;0.60;0.60;;;;;;;1.95;64.95;95820.06;29373;197;63005;-58
2023/03/11 01:09:53;;;;;;;0.60;0.60;;;;;;;1.99;65.04;95816.59;29373;308;63009;-61
2023/03/11 01:10:28;;;;;;;0.60;0.60;;;;;;;2.03;64.51;95811.53;29373;197;63005;-59
2023/03/11 01:11:00;;;;;;;0.60;0.60;;;;;;;1.96;64.93;95817.13;29371;202;64013;-61
2023/03/11 01:11:32;;;;;;;0.60;0.60;;;;;;;1.89;65.21;95808.53;29373;272;63005;-60
2023/03/11 01:12:04;;;;;;;0.68;0.68;;;;;;;1.93;64.99;95820.31;29373;204;63009;-61
2023/03/11 01:12:35;;;;;;;0.60;0.60;;;;;;;1.92;65.10;95816.03;29373;330;63004;-58
2023/03/11 01:13:07;;;;;;;0.60;0.60;;;;;;;1.91;65.04;95818.97;29373;358;63009;-64
2023/03/11 01:13:39;;;;;;;0.60;0.60;;;;;;;1.94;65.54;95811.22;29373;336;63004;-59
2023/03/11 01:14:11;;;;;;;0.60;0.60;;;;;;;1.95;65.12;95801.34;29373;203;63009;-63
2023/03/11 01:14:44;;;;;;;0.60;0.60;;;;;;;1.95;65.58;95814.72;29373;338;63010;-59
2023/03/11 01:15:38;;;;;;;0.60;0.60;;;;;;;1.95;65.31;95815.50;29373;242;63009;-58
2023/03/11 01:16:10;;;;;;;0.60;0.60;;;;;;;1.88;65.83;95825.66;29371;211;64009;-63
2023/03/11 01:16:42;;;;;;;0.60;0.60;;;;;;;1.78;66.94;95822.13;29373;260;63009;-66
2023/03/11 01:17:13;;;;;;;0.60;0.60;;;;;;;1.67;67.51;95819.47;29373;209;63005;-63
2023/03/11 01:17:45;;;;;;;0.68;0.68;;;;;;;1.62;67.77;95832.00;29373;198;63009;-61
2023/03/11 01:18:16;;;;;;;0.60;0.60;;;;;;;1.71;67.19;95829.63;29373;196;63005;-60
2023/03/11 01:18:48;;;;;;;0.60;0.60;;;;;;;1.73;66.71;95825.63;29373;202;63009;-58
2023/03/11 01:19:19;;;;;;;0.90;0.90;;;;;;;1.86;65.96;95817.09;29373;199;63000;-64
2023/03/11 01:19:50;;;;;;;0.82;0.82;;;;;;;1.86;65.74;95810.94;29373;206;63009;-61
2023/03/11 01:20:25;;;;;;;0.60;0.60;;;;;;;1.86;66.10;95806.38;29372;218;63004;-61
2023/03/11 01:20:56;;;;;;;0.60;0.60;;;;;;;1.91;65.61;95798.38;29373;199;63009;-62
2023/03/11 01:21:28;;;;;;;0.60;0.60;;;;;;;1.94;65.60;95807.75;29371;322;64009;-60
2023/03/11 01:21:59;;;;;;;0.70;0.70;;;;;;;1.97;65.14;95813.38;29373;216;63016;-59
2023/03/11 01:22:31;;;;;;;0.75;0.75;;;;;;;2.01;64.59;95803.75;29373;300;63004;-58
2023/03/11 01:23:03;;;;;;;0.65;0.65;;;;;;;2.01;64.93;95817.13;29373;291;63009;-62
2023/03/11 01:23:34;;;;;;;0.98;0.98;;;;;;;2.01;65.18;95803.75;29373;202;63005;-61
2023/03/11 01:24:06;;;;;;;0.60;0.60;;;;;;;2.00;64.72;95794.13;29371;226;64014;-61
2023/03/11 01:24:37;;;;;;;0.70;0.70;;;;;;;1.98;64.94;95803.47;29373;198;63005;-59
2023/03/11 01:25:13;;;;;;;0.60;0.60;;;;;;;1.86;64.93;95801.03;29373;202;63009;-60
2023/03/11 01:25:45;;;;;;;0.60;0.60;;;;;;;1.76;65.66;95800.19;29373;227;63005;-58
2023/03/11 01:26:16;;;;;;;0.60;0.60;;;;;;;1.74;65.52;95813.03;29373;222;63009;-60
2023/03/11 01:26:48;;;;;;;0.70;0.70;;;;;;;1.75;65.31;95804.75;29371;229;64009;-66
2023/03/11 01:27:28;;;;;;;0.60;0.60;;;;;;;1.77;64.26;95821.34;29373;204;63009;-65
2023/03/11 01:28:00;;;;;;;0.80;0.80;;;;;;;1.76;64.11;95801.00;29395;227;63004;-61
2023/03/11 01:28:31;;;;;;;1.05;0.80;;;;;;;1.78;63.65;95793.53;29394;222;64013;-61
2023/03/11 01:29:03;;;;;;;0.77;0.77;;;;;;;1.79;64.20;95811.19;29373;325;63004;-57
2023/03/11 01:29:37;;;;;;;0.60;0.60;;;;;;;1.76;64.22;95806.34;29373;202;63008;-57
2023/03/11 01:30:12;;;;;;;0.60;0.60;;;;;;;1.74;64.00;95796.97;29373;197;63004;-64
2023/03/11 01:30:47;;;;;;;0.70;0.70;;;;;;;1.74;63.78;95800.47;29373;263;63009;-59
2023/03/11 01:31:18;;;;;;;0.60;0.60;;;;;;;1.65;64.65;95810.09;29373;206;63005;-59
2023/03/11 01:31:50;;;;;;;0.60;0.60;;;;;;;1.61;64.95;95819.69;29371;233;64012;-54
2023/03/11 01:32:22;;;;;;;0.60;0.60;;;;;;;1.64;64.63;95808.47;29373;222;63005;-59
2023/03/11 01:32:55;;;;;;;0.60;0.60;;;;;;;1.69;64.36;95813.84;29373;315;63009;-60
2023/03/11 01:33:27;;;;;;;1.40;0.95;;;;;;;1.71;63.99;95809.03;29373;203;63008;-59
2023/03/11 01:33:59;;;;;;;0.60;0.60;;;;;;;1.72;64.04;95805.31;29373;254;63009;-61
2023/03/11 01:34:32;;;;;;;0.60;0.60;;;;;;;1.73;63.95;95798.88;29373;238;63004;-59
2023/03/11 01:35:04;;;;;;;1.17;1.17;;;;;;;1.69;64.11;95797.81;29373;261;63009;-58
2023/03/11 01:35:36;;;;;;;0.80;0.80;;;;;;;1.67;64.59;95803.41;29371;266;64009;-58
2023/03/11 01:36:08;;;;;;;0.73;0.73;;;;;;;1.67;64.26;95815.97;29373;275;63008;-58
2023/03/11 01:36:39;;;;;;;0.60;0.60;;;;;;;1.68;64.83;95809.56;29373;238;63004;-59
2023/03/11 01:37:10;;;;;;;0.60;0.60;;;;;;;1.63;64.74;95804.19;29373;232;63009;-59
2023/03/11 01:37:42;;;;;;;0.60;0.60;;;;;;;1.60;64.71;95802.03;29373;237;63004;-60
2023/03/11 01:38:14;;;;;;;0.60;0.60;;;;;;;1.55;64.37;95805.50;29373;245;63009;-60
2023/03/11 01:38:49;;;;;;;0.60;0.60;;;;;;;1.55;64.71;95810.03;29373;285;63005;-63
2023/03/11 01:39:21;;;;;;;0.70;0.70;;;;;;;1.51;64.91;95827.66;29373;236;63009;-61
2023/03/11 01:39:52;;;;;;;0.70;0.70;;;;;;;1.51;65.04;95809.75;29371;227;64009;-61
2023/03/11 01:40:39;;;;;;;5.25;2.90;;;;;;;1.55;64.12;95815.38;29373;197;63009;-59
2023/03/11 01:41:11;;;;;;;0.95;0.95;;;;;;;1.53;64.07;95817.53;29373;207;63004;-60
2023/03/11 01:41:42;;;;;;;1.08;1.08;;;;;;;1.48;63.84;95823.66;29373;265;63009;-59
2023/03/11 01:42:14;;;;;;;0.82;0.82;;;;;;;1.48;63.75;95823.66;29373;246;63000;-56
2023/03/11 01:42:45;;;;;;;0.60;0.60;;;;;;;1.50;63.27;95818.03;29373;258;63009;-64
2023/03/11 01:43:48;;;;;;;0.68;0.68;;;;;;;1.48;63.44;95814.81;29371;251;64009;-61
2023/03/11 01:44:20;;;;;;;1.02;1.02;;;;;;;1.48;63.55;95812.16;29371;202;64008;-60
2023/03/11 01:44:54;;;;;;;0.70;0.70;;;;;;;1.49;63.53;95819.09;29373;213;63009;-58
2023/03/11 01:46:00;;;;;;;0.70;0.70;;;;;;;1.49;63.39;95821.78;29373;306;63005;-56
2023/03/11 01:47:12;;;;;;;0.70;0.70;;;;;;;1.42;63.80;95805.16;29373;214;63009;-59
2023/03/11 01:47:43;;;;;;;0.70;0.70;;;;;;;1.38;63.82;95804.09;29373;210;63010;-58
2023/03/11 01:48:19;;;;;;;1.00;0.90;;;;;;;1.40;64.04;95807.28;29373;234;63009;-61
2023/03/11 01:48:56;;;;;;;0.60;0.60;;;;;;;1.37;63.86;95813.19;29373;223;63004;-65
2023/03/11 01:49:28;;;;;;;0.80;0.80;;;;;;;1.27;64.50;95822.75;29371;229;64013;-63
2023/03/11 01:50:00;;;;;;;0.60;0.60;;;;;;;1.26;64.61;95815.81;29373;223;63004;-63
2023/03/11 01:50:36;;;;;;;1.05;0.90;;;;;;;1.27;63.61;95804.06;29373;213;63009;-59
2023/03/11 01:51:08;;;;;;;1.10;1.10;;;;;;;1.31;63.66;95810.50;29371;252;64009;-61
2023/03/11 01:51:47;;;;;;;0.70;0.70;;;;;;;1.32;63.75;95806.75;29373;227;63008;-59
2023/03/11 01:52:19;;;;;;;0.68;0.68;;;;;;;1.32;63.55;95811.28;29373;230;63005;-62
2023/03/11 01:52:51;;;;;;;0.60;0.60;;;;;;;1.26;63.60;95812.34;29371;243;64014;-63
2023/03/11 01:53:23;;;;;;;0.68;0.68;;;;;;;1.26;63.11;95807.78;29373;207;63005;-60
2023/03/11 01:53:59;;;;;;;0.65;0.65;;;;;;;1.27;63.48;95803.25;29371;216;64013;-61
2023/03/11 01:54:32;;;;;;;0.80;0.80;;;;;;;1.28;63.20;95799.53;29373;221;63005;-58
2023/03/11 01:55:05;;;;;;;0.62;0.62;;;;;;;1.28;63.48;95805.66;29373;206;63009;-58
2023/03/11 01:55:37;;;;;;;0.70;0.70;;;;;;;1.22;63.51;95804.03;29373;196;63005;-59
2023/03/11 01:56:09;;;;;;;0.70;0.70;;;;;;;1.21;64.22;95817.66;29371;197;64013;-58
2023/03/11 01:56:41;;;;;;;0.60;0.60;;;;;;;1.21;64.29;95828.34;29373;209;63004;-62
2023/03/11 01:57:13;;;;;;;0.60;0.60;;;;;;;1.21;63.71;95818.44;29373;236;63009;-56
2023/03/11 01:57:46;;;;;;;0.70;0.70;;;;;;;1.18;63.69;95826.97;29373;244;63004;-66
2023/03/11 01:58:23;;;;;;;0.65;0.65;;;;;;;1.17;63.86;95825.38;29373;202;63009;-60
2023/03/11 01:58:57;;;;;;;0.70;0.70;;;;;;;1.16;64.28;95807.72;29373;208;63017;-59
2023/03/11 01:59:34;;;;;;;0.60;0.60;;;;;;;1.14;64.08;95799.16;29371;208;64013;-58
2023/03/11 02:00:11;;;;;;;0.70;0.70;;;;;;;1.15;64.43;95826.69;29373;240;63005;-61
2023/03/11 02:00:43;;;;;;;0.70;0.70;;;;;;;1.14;64.08;95836.56;29372;216;63009;-58
2023/03/11 02:01:15;;;;;;;0.93;0.93;;;;;;;1.09;64.45;95825.84;29373;216;63005;-61
2023/03/11 02:02:08;;;;;;;1.70;1.60;;;;;;;1.12;64.10;95813.84;29373;229;63009;-69
2023/03/11 02:02:49;;;;;;;0.70;0.70;;;;;;;1.15;63.98;95800.78;29373;212;63005;-60
2023/03/11 02:03:37;;;;;;;0.93;0.93;;;;;;;1.15;63.86;95811.47;29395;294;63009;-56
2023/03/11 02:04:09;;;;;;;0.75;0.75;;;;;;;1.16;63.70;95813.06;29395;245;63004;-59
2023/03/11 02:04:41;;;;;;;0.77;0.77;;;;;;;1.19;63.66;95812.56;29371;283;64027;-59
2023/03/11 02:05:13;;;;;;;0.70;0.70;;;;;;;1.17;64.04;95804.00;29373;204;63004;-59
2023/03/11 02:05:46;;;;;;;0.70;0.70;;;;;;;1.16;63.90;95802.37;29373;229;63009;-58
2023/03/11 02:06:21;;;;;;;0.70;0.70;;;;;;;1.19;64.08;95822.44;29373;244;63004;-53
2023/03/11 02:06:53;;;;;;;0.70;0.70;;;;;;;1.18;63.89;95815.50;29371;212;64002;-62
2023/03/11 02:07:24;;;;;;;0.60;0.60;;;;;;;1.16;63.91;95823.75;29373;262;63005;-57
2023/03/11 02:07:57;;;;;;;0.70;0.70;;;;;;;1.12;64.39;95806.66;29373;210;63009;-64
2023/03/11 02:08:32;;;;;;;0.60;0.60;;;;;;;1.11;64.44;95814.91;29373;206;63005;-61
2023/03/11 02:09:04;;;;;;;0.70;0.70;;;;;;;1.03;65.32;95826.91;29373;220;63009;-62
2023/03/11 02:09:36;;;;;;;0.70;0.70;;;;;;;1.01;65.46;95834.38;29372;222;64005;-59
2023/03/11 02:10:10;;;;;;;0.70;0.70;;;;;;;1.06;65.24;95822.91;29373;204;63009;-60
2023/03/11 02:10:43;;;;;;;0.80;0.80;;;;;;;1.05;65.12;95826.63;29371;214;64009;-63
2023/03/11 02:11:25;;;;;;;0.70;0.70;;;;;;;1.03;65.62;95824.25;29373;275;63009;-62
2023/03/11 02:11:57;;;;;;;0.70;0.70;;;;;;;1.05;65.43;95822.09;29373;213;63004;-60
2023/03/11 02:12:34;;;;;;;0.65;0.65;;;;;;;1.11;64.95;95820.25;29373;204;63009;-60
2023/03/11 02:13:06;;;;;;;0.70;0.70;;;;;;;1.10;65.30;95819.44;29371;219;64009;-60
2023/03/11 02:13:40;;;;;;;0.60;0.60;;;;;;;1.14;65.07;95820.53;29373;202;63009;-60
2023/03/11 02:14:15;;;;;;;0.60;0.60;;;;;;;1.08;65.08;95821.56;29373;211;63004;-65
2023/03/11 02:14:49;;;;;;;0.80;0.80;;;;;;;1.00;66.24;95835.44;29373;254;63009;-60
2023/03/11 02:15:21;;;;;;;0.68;0.68;;;;;;;1.00;65.82;95835.44;29373;246;63005;-61
2023/03/11 02:15:52;;;;;;;0.70;0.70;;;;;;;1.05;65.66;95843.47;29373;218;63009;-63
2023/03/11 02:16:24;;;;;;;0.60;0.60;;;;;;;1.12;65.23;95854.72;29373;197;63005;-58
2023/03/11 02:16:57;;;;;;;0.70;0.70;;;;;;;1.14;65.01;95854.47;29371;247;64013;-59
2023/03/11 02:17:30;;;;;;;0.70;0.70;;;;;;;1.20;64.11;95851.59;29373;260;63005;-55
2023/03/11 02:18:05;;;;;;;0.80;0.80;;;;;;;1.25;63.95;95846.25;29372;221;63009;-60
2023/03/11 02:18:37;;;;;;;0.70;0.70;;;;;;;1.26;63.91;95845.22;29373;207;63005;-56
2023/03/11 02:19:52;;;;;;;0.70;0.70;;;;;;;1.25;64.25;95848.94;29373;203;63011;-61
2023/03/11 02:20:53;;;;;;;0.70;0.70;;;;;;;1.25;63.19;95819.53;29371;224;64009;-60
2023/03/11 02:21:29;;;;;;;0.70;0.70;;;;;;;1.23;63.57;95828.88;29373;202;63008;-59
2023/03/11 02:22:03;;;;;;;0.82;0.82;;;;;;;1.22;63.89;95832.63;29371;258;64008;-59
2023/03/11 02:22:35;;;;;;;0.93;0.93;;;;;;;1.20;63.78;95846.22;29373;213;63014;-61
2023/03/11 02:23:07;;;;;;;0.62;0.62;;;;;;;1.13;64.29;95834.97;29373;198;63005;-64
2023/03/11 02:24:18;;;;;;;0.70;0.70;;;;;;;1.03;64.83;95829.59;29371;265;64014;-61
2023/03/11 02:25:24;;;;;;;1.85;1.75;;;;;;;1.14;63.25;95836.56;29373;200;63005;-58
2023/03/11 02:26:10;;;;;;;0.70;0.70;;;;;;;1.14;63.16;95836.56;29371;198;64009;-61
2023/03/11 02:27:00;;;;;;;0.70;0.70;;;;;;;1.10;63.03;95851.50;29373;197;63009;-59
2023/03/11 02:27:35;;;;;;;0.90;0.90;;;;;;;1.14;63.27;95849.13;29373;223;63004;-55
2023/03/11 02:28:10;;;;;;;0.73;0.73;;;;;;;1.13;62.97;95848.31;29373;282;63009;-61
2023/03/11 02:28:42;;;;;;;0.80;0.80;;;;;;;1.10;62.43;95848.84;29373;215;63004;-53
2023/03/11 02:29:14;;;;;;;0.70;0.70;;;;;;;1.06;61.97;95825.56;29373;222;63008;-59
2023/03/11 02:29:50;;;;;;;0.80;0.80;;;;;;;1.06;62.42;95829.03;29373;206;63005;-61
2023/03/11 02:30:28;;;;;;;0.60;0.60;;;;;;;1.04;62.26;95825.81;29373;213;63009;-57
2023/03/11 02:31:00;;;;;;;0.70;0.70;;;;;;;1.04;61.84;95830.41;29371;224;64009;-58
2023/03/11 02:31:32;;;;;;;0.60;0.60;;;;;;;1.05;61.91;95830.09;29373;223;63009;-60
2023/03/11 02:32:09;;;;;;;0.70;0.70;;;;;;;1.03;62.20;95840.28;29373;215;63005;-55
2023/03/11 02:32:46;;;;;;;0.80;0.80;;;;;;;1.05;62.02;95842.66;29371;204;64013;-57
2023/03/11 02:33:19;;;;;;;0.80;0.80;;;;;;;1.04;62.30;95847.19;29371;246;64009;-57
2023/03/11 02:33:53;;;;;;;0.80;0.80;;;;;;;1.03;61.83;95828.78;29373;208;63009;-63
2023/03/11 02:34:30;;;;;;;2.28;0.90;;;;;;;1.02;61.95;95832.53;29373;204;63004;-60
2023/03/11 02:35:03;;;;;;;1.08;1.08;;;;;;;0.99;61.90;95839.19;29373;196;63009;-58
2023/03/11 02:35:34;;;;;;;0.70;0.70;;;;;;;0.89;62.58;95841.78;29373;213;63004;-60
2023/03/11 02:36:27;;;;;;;0.77;0.77;;;;;;;0.88;62.82;95853.50;29373;213;63008;-60
2023/03/11 02:36:59;;;;;;;0.60;0.60;;;;;;;0.81;63.17;95863.59;29373;269;63004;-57
2023/03/11 02:37:30;;;;;;;0.60;0.60;;;;;;;0.78;63.24;95850.75;29373;202;63009;-59
2023/03/11 02:38:05;;;;;;;0.70;0.70;;;;;;;0.81;63.26;95858.28;29373;200;63005;-60
2023/03/11 02:38:40;;;;;;;0.70;0.70;;;;;;;0.84;62.89;95863.09;29371;242;64013;-58
2023/03/11 02:39:11;;;;;;;0.70;0.70;;;;;;;0.86;63.08;95858.31;29373;216;63005;-66
2023/03/11 02:39:46;;;;;;;0.68;0.68;;;;;;;0.87;62.81;95857.25;29373;254;63009;-63
2023/03/11 02:40:52;;;;;;;0.80;0.80;;;;;;;0.90;62.34;95852.19;29373;213;63005;-61
2023/03/11 02:41:23;;;;;;;0.70;0.70;;;;;;;0.88;62.66;95856.19;29373;213;63025;-59
2023/03/11 02:41:55;;;;;;;0.73;0.73;;;;;;;0.88;61.88;95856.19;29373;202;63004;-57
2023/03/11 02:42:32;;;;;;;0.70;0.70;;;;;;;0.92;61.98;95847.41;29371;237;64013;-59
2023/03/11 02:43:10;;;;;;;0.70;0.70;;;;;;;0.90;61.92;95840.72;29372;213;64004;-61
2023/03/11 02:43:45;;;;;;;0.70;0.70;;;;;;;0.86;62.56;95843.09;29373;225;63008;-58
2023/03/11 02:44:17;;;;;;;0.60;0.60;;;;;;;0.79;62.63;95855.84;29373;214;63005;-61
2023/03/11 02:45:03;;;;;;;0.60;0.60;;;;;;;0.70;63.50;95862.72;29373;227;63009;-62
2023/03/11 02:45:44;;;;;;;0.62;0.62;;;;;;;0.68;63.35;95875.53;29373;202;63005;-58